sensor_id;sensor_type;location;lat;lon;timestamp;pressure;altitude;pressure_sealevel;temperature;humidity
5812;BME280;2932;52.400;9.558;2023-02-28T00:00:33;102520.34;;;8.42;55.02
5812;BME280;2932;52.400;9.558;2023-02-28T00:02:59;102514.00;;;8.42;54.78
5812;BME280;2932;52.400;9.558;2023-02-28T00:05:26;102521.38;;;8.51;54.72
5812;BME280;2932;52.400;9.558;2023-02-28T00:07:52;102514.00;;;8.42;54.96
5812;BME280;2932;52.400;9.558;2023-02-28T00:10:22;102517.00;;;8.45;54.85
5812;BME280;2932;52.400;9.558;2023-02-28T00:12:49;102519.03;;;8.34;55.15
5812;BME280;2932;52.400;9.558;2023-02-28T00:15:15;102518.69;;;8.41;54.81
5812;BME280;2932;52.400;9.558;2023-02-28T00:17:40;102516.56;;;8.33;55.05
5812;BME280;2932;52.400;9.558;2023-02-28T00:20:07;102512.69;;;8.29;54.99
5812;BME280;2932;52.400;9.558;2023-02-28T00:22:42;102516.84;;;8.21;55.63
5812;BME280;2932;52.400;9.558;2023-02-28T00:25:09;102511.59;;;8.25;55.46
5812;BME280;2932;52.400;9.558;2023-02-28T00:27:36;102514.66;;;8.18;55.72
5812;BME280;2932;52.400;9.558;2023-02-28T00:30:03;102516.03;;;8.16;55.78
5812;BME280;2932;52.400;9.558;2023-02-28T00:32:29;102520.69;;;8.25;55.85
5812;BME280;2932;52.400;9.558;2023-02-28T00:34:55;102517.41;;;8.23;55.78
5812;BME280;2932;52.400;9.558;2023-02-28T00:37:20;102520.03;;;8.49;55.19
5812;BME280;2932;52.400;9.558;2023-02-28T00:39:45;102505.88;;;8.06;55.78
5812;BME280;2932;52.400;9.558;2023-02-28T00:42:11;102503.75;;;7.98;56.03
5812;BME280;2932;52.400;9.558;2023-02-28T00:44:36;102514.19;;;8.01;56.16
5812;BME280;2932;52.400;9.558;2023-02-28T00:47:01;102509.28;;;7.93;56.22
5812;BME280;2932;52.400;9.558;2023-02-28T00:49:27;102506.28;;;7.84;56.63
5812;BME280;2932;52.400;9.558;2023-02-28T00:51:55;102507.09;;;7.90;55.82
5812;BME280;2932;52.400;9.558;2023-02-28T00:54:22;102509.16;;;8.13;55.62
5812;BME280;2932;52.400;9.558;2023-02-28T00:56:47;102511.38;;;8.11;55.79
5812;BME280;2932;52.400;9.558;2023-02-28T00:59:14;102509.53;;;7.96;56.20
5812;BME280;2932;52.400;9.558;2023-02-28T01:01:40;102520.22;;;8.08;55.85
5812;BME280;2932;52.400;9.558;2023-02-28T01:04:06;102516.38;;;8.04;55.91
5812;BME280;2932;52.400;9.558;2023-02-28T01:06:32;102517.81;;;7.96;55.92
5812;BME280;2932;52.400;9.558;2023-02-28T01:08:58;102513.13;;;7.92;55.91
5812;BME280;2932;52.400;9.558;2023-02-28T01:11:24;102515.13;;;7.76;56.41
5812;BME280;2932;52.400;9.558;2023-02-28T01:13:50;102512.91;;;7.78;56.13
5812;BME280;2932;52.400;9.558;2023-02-28T01:16:15;102515.38;;;7.80;56.25
5812;BME280;2932;52.400;9.558;2023-02-28T01:18:41;102516.50;;;7.74;56.30
5812;BME280;2932;52.400;9.558;2023-02-28T01:21:09;102509.88;;;7.75;56.43
5812;BME280;2932;52.400;9.558;2023-02-28T01:23:35;102514.84;;;7.67;56.38
5812;BME280;2932;52.400;9.558;2023-02-28T01:26:09;102512.34;;;7.81;56.14
5812;BME280;2932;52.400;9.558;2023-02-28T01:28:35;102519.78;;;7.86;56.13
5812;BME280;2932;52.400;9.558;2023-02-28T01:31:01;102514.03;;;7.62;56.58
5812;BME280;2932;52.400;9.558;2023-02-28T01:33:26;102510.75;;;7.60;56.66
5812;BME280;2932;52.400;9.558;2023-02-28T01:36:00;102514.66;;;7.49;57.03
5812;BME280;2932;52.400;9.558;2023-02-28T01:38:25;102519.25;;;7.68;56.52
5812;BME280;2932;52.400;9.558;2023-02-28T01:40:51;102512.97;;;7.58;56.40
5812;BME280;2932;52.400;9.558;2023-02-28T01:43:22;102513.50;;;7.60;56.30
5812;BME280;2932;52.400;9.558;2023-02-28T01:45:48;102520.34;;;7.73;55.95
5812;BME280;2932;52.400;9.558;2023-02-28T01:48:13;102515.97;;;7.66;56.28
5812;BME280;2932;52.400;9.558;2023-02-28T01:50:43;102513.28;;;7.41;56.63
5812;BME280;2932;52.400;9.558;2023-02-28T01:53:14;102512.38;;;7.66;56.23
5812;BME280;2932;52.400;9.558;2023-02-28T01:55:41;102519.00;;;7.60;56.14
5812;BME280;2932;52.400;9.558;2023-02-28T01:58:07;102509.44;;;7.32;56.85
5812;BME280;2932;52.400;9.558;2023-02-28T02:00:34;102516.06;;;7.21;56.85
5812;BME280;2932;52.400;9.558;2023-02-28T02:03:05;102510.28;;;7.27;56.83
5812;BME280;2932;52.400;9.558;2023-02-28T02:05:32;102513.34;;;7.16;56.83
5812;BME280;2932;52.400;9.558;2023-02-28T02:08:04;102511.69;;;7.10;56.77
5812;BME280;2932;52.400;9.558;2023-02-28T02:10:36;102510.03;;;7.09;56.49
5812;BME280;2932;52.400;9.558;2023-02-28T02:16:29;102508.09;;;7.04;57.03
5812;BME280;2932;52.400;9.558;2023-02-28T02:19:08;102511.69;;;6.94;56.82
5812;BME280;2932;52.400;9.558;2023-02-28T02:27:16;102502.31;;;6.90;57.03
5812;BME280;2932;52.400;9.558;2023-02-28T02:43:24;102492.97;;;6.71;56.96
5812;BME280;2932;52.400;9.558;2023-02-28T02:46:01;102499.28;;;6.82;57.04
5812;BME280;2932;52.400;9.558;2023-02-28T02:48:30;102502.88;;;6.77;57.09
5812;BME280;2932;52.400;9.558;2023-02-28T02:51:01;102503.97;;;6.66;57.30
5812;BME280;2932;52.400;9.558;2023-02-28T02:53:35;102502.88;;;6.67;57.47
5812;BME280;2932;52.400;9.558;2023-02-28T02:56:03;102502.31;;;6.65;57.00
5812;BME280;2932;52.400;9.558;2023-02-28T02:58:36;102499.84;;;6.68;57.16
5812;BME280;2932;52.400;9.558;2023-02-28T03:01:10;102501.75;;;6.83;56.63
5812;BME280;2932;52.400;9.558;2023-02-28T03:03:37;102500.94;;;6.57;56.99
5812;BME280;2932;52.400;9.558;2023-02-28T03:06:04;102501.75;;;6.38;57.50
5812;BME280;2932;52.400;9.558;2023-02-28T03:08:36;102502.28;;;6.40;57.49
5812;BME280;2932;52.400;9.558;2023-02-28T03:11:05;102500.06;;;6.31;57.57
5812;BME280;2932;52.400;9.558;2023-02-28T03:16:33;102497.06;;;6.48;57.26
5812;BME280;2932;52.400;9.558;2023-02-28T03:19:37;102497.88;;;6.44;57.35
5812;BME280;2932;52.400;9.558;2023-02-28T03:22:29;102500.56;;;6.18;56.81
5812;BME280;2932;52.400;9.558;2023-02-28T03:25:35;102505.81;;;6.25;57.04
5812;BME280;2932;52.400;9.558;2023-02-28T03:29:15;102498.78;;;5.82;59.09
5812;BME280;2932;52.400;9.558;2023-02-28T03:31:31;102487.19;;;5.75;59.65
5812;BME280;2932;52.400;9.558;2023-02-28T03:34:04;102492.28;;;5.46;60.76
5812;BME280;2932;52.400;9.558;2023-02-28T03:36:37;102493.69;;;5.53;61.15
5812;BME280;2932;52.400;9.558;2023-02-28T03:39:13;102489.59;;;5.56;60.89
5812;BME280;2932;52.400;9.558;2023-02-28T03:41:57;102486.28;;;5.54;60.58
5812;BME280;2932;52.400;9.558;2023-02-28T03:47:03;102488.97;;;6.01;59.55
5812;BME280;2932;52.400;9.558;2023-02-28T03:49:37;102488.63;;;5.87;59.52
5812;BME280;2932;52.400;9.558;2023-02-28T03:52:08;102487.75;;;5.77;59.75
5812;BME280;2932;52.400;9.558;2023-02-28T03:54:41;102488.56;;;5.72;60.30
5812;BME280;2932;52.400;9.558;2023-02-28T03:57:20;102490.38;;;5.98;59.53
5812;BME280;2932;52.400;9.558;2023-02-28T03:59:56;102492.66;;;5.69;59.91
5812;BME280;2932;52.400;9.558;2023-02-28T04:02:24;102500.56;;;5.56;60.55
5812;BME280;2932;52.400;9.558;2023-02-28T04:04:50;102497.41;;;5.84;60.46
5812;BME280;2932;52.400;9.558;2023-02-28T04:07:16;102494.38;;;5.81;60.36
5812;BME280;2932;52.400;9.558;2023-02-28T04:09:43;102492.78;;;5.90;59.84
5812;BME280;2932;52.400;9.558;2023-02-28T04:12:08;102500.44;;;5.88;59.36
5812;BME280;2932;52.400;9.558;2023-02-28T04:14:33;102499.88;;;5.86;58.72
5812;BME280;2932;52.400;9.558;2023-02-28T04:16:59;102500.75;;;5.91;58.83
5812;BME280;2932;52.400;9.558;2023-02-28T04:19:24;102500.75;;;5.91;58.86
5812;BME280;2932;52.400;9.558;2023-02-28T04:21:51;102507.94;;;6.08;58.37
5812;BME280;2932;52.400;9.558;2023-02-28T04:24:23;102500.75;;;5.91;58.39
5812;BME280;2932;52.400;9.558;2023-02-28T04:26:51;102502.22;;;6.14;57.93
5812;BME280;2932;52.400;9.558;2023-02-28T04:29:23;102499.72;;;6.08;57.72
5812;BME280;2932;52.400;9.558;2023-02-28T04:31:48;102504.09;;;6.03;57.77
5812;BME280;2932;52.400;9.558;2023-02-28T04:34:14;102493.09;;;5.98;57.69
5812;BME280;2932;52.400;9.558;2023-02-28T04:36:40;102500.25;;;6.05;57.57
5812;BME280;2932;52.400;9.558;2023-02-28T04:39:05;102494.94;;;5.88;57.40
5812;BME280;2932;52.400;9.558;2023-02-28T04:41:31;102506.19;;;5.81;57.72
5812;BME280;2932;52.400;9.558;2023-02-28T04:43:56;102507.03;;;5.87;57.80
5812;BME280;2932;52.400;9.558;2023-02-28T04:46:22;102507.41;;;6.06;57.31
5812;BME280;2932;52.400;9.558;2023-02-28T04:48:48;102505.94;;;5.88;58.02
5812;BME280;2932;52.400;9.558;2023-02-28T04:51:15;102514.69;;;5.80;57.57
5812;BME280;2932;52.400;9.558;2023-02-28T04:53:41;102506.19;;;5.81;57.66
5812;BME280;2932;52.400;9.558;2023-02-28T04:56:09;102507.44;;;5.63;57.65
5812;BME280;2932;52.400;9.558;2023-02-28T04:58:35;102515.69;;;5.58;58.09
5812;BME280;2932;52.400;9.558;2023-02-28T05:01:02;102507.47;;;5.68;57.86
5812;BME280;2932;52.400;9.558;2023-02-28T05:03:28;102517.38;;;5.69;57.79
5812;BME280;2932;52.400;9.558;2023-02-28T05:05:53;102510.19;;;5.58;58.23
5812;BME280;2932;52.400;9.558;2023-02-28T05:08:20;102512.19;;;5.73;57.54
5812;BME280;2932;52.400;9.558;2023-02-28T05:10:45;102508.53;;;5.62;57.61
5812;BME280;2932;52.400;9.558;2023-02-28T05:13:13;102510.00;;;5.75;57.35
5812;BME280;2932;52.400;9.558;2023-02-28T05:15:39;102499.13;;;5.43;57.99
5812;BME280;2932;52.400;9.558;2023-02-28T05:18:05;102512.09;;;5.53;58.00
5812;BME280;2932;52.400;9.558;2023-02-28T05:20:30;102513.47;;;5.55;57.43
5812;BME280;2932;52.400;9.558;2023-02-28T05:22:57;102512.38;;;5.61;57.59
5812;BME280;2932;52.400;9.558;2023-02-28T05:25:23;102514.53;;;5.49;57.67
5812;BME280;2932;52.400;9.558;2023-02-28T05:27:48;102515.22;;;5.77;57.20
5812;BME280;2932;52.400;9.558;2023-02-28T05:30:14;102510.94;;;5.44;57.75
5812;BME280;2932;52.400;9.558;2023-02-28T05:32:40;102510.28;;;5.31;57.89
5812;BME280;2932;52.400;9.558;2023-02-28T05:35:12;102514.75;;;5.00;57.40
5812;BME280;2932;52.400;9.558;2023-02-28T05:37:38;102520.03;;;4.80;58.05
5812;BME280;2932;52.400;9.558;2023-02-28T05:40:04;102512.16;;;4.89;58.96
5812;BME280;2932;52.400;9.558;2023-02-28T05:42:37;102522.53;;;5.14;58.74
5812;BME280;2932;52.400;9.558;2023-02-28T05:45:04;102521.88;;;5.01;58.14
5812;BME280;2932;52.400;9.558;2023-02-28T05:47:29;102518.53;;;4.94;58.36
5812;BME280;2932;52.400;9.558;2023-02-28T05:49:55;102520.91;;;4.86;58.21
5812;BME280;2932;52.400;9.558;2023-02-28T05:52:20;102525.75;;;4.74;58.98
5812;BME280;2932;52.400;9.558;2023-02-28T05:54:46;102524.75;;;4.85;59.12
5812;BME280;2932;52.400;9.558;2023-02-28T05:57:11;102524.28;;;4.93;59.14
5812;BME280;2932;52.400;9.558;2023-02-28T05:59:37;102518.63;;;4.73;59.05
5812;BME280;2932;52.400;9.558;2023-02-28T06:02:11;102514.84;;;4.79;59.74
5812;BME280;2932;52.400;9.558;2023-02-28T06:04:37;102518.72;;;4.56;60.01
5812;BME280;2932;52.400;9.558;2023-02-28T06:07:03;102518.06;;;4.71;60.21
5812;BME280;2932;52.400;9.558;2023-02-28T06:09:28;102526.44;;;4.91;59.95
5812;BME280;2932;52.400;9.558;2023-02-28T06:11:54;102528.75;;;4.72;60.16
5812;BME280;2932;52.400;9.558;2023-02-28T06:14:20;102528.59;;;4.57;60.92
5812;BME280;2932;52.400;9.558;2023-02-28T06:16:46;102549.16;;;4.86;60.70
5812;BME280;2932;52.400;9.558;2023-02-28T06:19:12;102535.25;;;4.93;60.00
5812;BME280;2932;52.400;9.558;2023-02-28T06:21:38;102540.31;;;4.74;60.68
5812;BME280;2932;52.400;9.558;2023-02-28T06:24:04;102550.66;;;4.99;60.23
5812;BME280;2932;52.400;9.558;2023-02-28T06:26:30;102546.31;;;5.03;59.69
5812;BME280;2932;52.400;9.558;2023-02-28T06:28:55;102555.78;;;4.90;60.25
5812;BME280;2932;52.400;9.558;2023-02-28T06:31:22;102555.56;;;4.97;60.29
5812;BME280;2932;52.400;9.558;2023-02-28T06:33:48;102562.19;;;5.01;60.56
5812;BME280;2932;52.400;9.558;2023-02-28T06:36:15;102565.97;;;5.27;60.00
5812;BME280;2932;52.400;9.558;2023-02-28T06:38:41;102559.28;;;5.13;60.24
5812;BME280;2932;52.400;9.558;2023-02-28T06:41:07;102565.91;;;5.17;60.98
5812;BME280;2932;52.400;9.558;2023-02-28T06:43:36;102568.88;;;5.10;60.91
5812;BME280;2932;52.400;9.558;2023-02-28T06:46:05;102571.81;;;5.03;61.18
5812;BME280;2932;52.400;9.558;2023-02-28T06:48:31;102583.66;;;5.41;61.32
5812;BME280;2932;52.400;9.558;2023-02-28T06:51:14;102576.81;;;5.44;60.92
5812;BME280;2932;52.400;9.558;2023-02-28T06:53:40;102582.13;;;5.60;60.83
5812;BME280;2932;52.400;9.558;2023-02-28T06:56:08;102577.81;;;5.75;60.51
5812;BME280;2932;52.400;9.558;2023-02-28T06:58:34;102581.84;;;5.99;59.92
5812;BME280;2932;52.400;9.558;2023-02-28T07:01:00;102578.38;;;6.24;59.46
5812;BME280;2932;52.400;9.558;2023-02-28T07:03:26;102575.16;;;6.47;58.54
5812;BME280;2932;52.400;9.558;2023-02-28T07:05:51;102574.59;;;6.45;58.67
5812;BME280;2932;52.400;9.558;2023-02-28T07:08:17;102582.59;;;6.57;58.19
5812;BME280;2932;52.400;9.558;2023-02-28T07:10:42;102582.91;;;6.65;57.78
5812;BME280;2932;52.400;9.558;2023-02-28T07:13:09;102590.91;;;6.77;57.22
5812;BME280;2932;52.400;9.558;2023-02-28T07:15:38;102588.44;;;6.96;56.87
5812;BME280;2932;52.400;9.558;2023-02-28T07:18:03;102578.28;;;7.01;56.80
5812;BME280;2932;52.400;9.558;2023-02-28T07:20:29;102592.59;;;7.09;56.75
5812;BME280;2932;52.400;9.558;2023-02-28T07:22:55;102586.00;;;7.15;56.44
5812;BME280;2932;52.400;9.558;2023-02-28T07:25:28;102590.13;;;7.17;56.58
5812;BME280;2932;52.400;9.558;2023-02-28T07:27:54;102585.69;;;7.21;56.74
5812;BME280;2932;52.400;9.558;2023-02-28T07:30:20;102587.91;;;6.94;57.34
5812;BME280;2932;52.400;9.558;2023-02-28T07:32:46;102582.94;;;7.01;57.45
5812;BME280;2932;52.400;9.558;2023-02-28T07:35:11;102581.59;;;7.14;56.85
5812;BME280;2932;52.400;9.558;2023-02-28T07:37:37;102580.19;;;7.01;56.94
5812;BME280;2932;52.400;9.558;2023-02-28T07:40:07;102584.03;;;7.20;57.36
5812;BME280;2932;52.400;9.558;2023-02-28T07:42:39;102585.44;;;7.33;56.86
5812;BME280;2932;52.400;9.558;2023-02-28T07:45:05;102589.84;;;7.19;57.22
5812;BME280;2932;52.400;9.558;2023-02-28T07:47:31;102596.44;;;7.48;56.95
5812;BME280;2932;52.400;9.558;2023-02-28T07:49:57;102594.50;;;7.54;56.23
5812;BME280;2932;52.400;9.558;2023-02-28T07:52:22;102590.63;;;7.65;56.34
5812;BME280;2932;52.400;9.558;2023-02-28T07:54:51;102585.09;;;7.75;55.75
5812;BME280;2932;52.400;9.558;2023-02-28T07:57:16;102587.28;;;7.78;55.70
5812;BME280;2932;52.400;9.558;2023-02-28T07:59:42;102605.75;;;7.88;55.77
5812;BME280;2932;52.400;9.558;2023-02-28T08:02:13;102590.84;;;7.99;55.49
5812;BME280;2932;52.400;9.558;2023-02-28T08:04:39;102594.06;;;8.21;55.11
5812;BME280;2932;52.400;9.558;2023-02-28T08:07:04;102598.19;;;8.24;55.26
5812;BME280;2932;52.400;9.558;2023-02-28T08:09:29;102594.25;;;8.40;55.12
5812;BME280;2932;52.400;9.558;2023-02-28T08:11:55;102592.09;;;8.32;54.70
5812;BME280;2932;52.400;9.558;2023-02-28T08:14:20;102588.13;;;8.53;54.31
5812;BME280;2932;52.400;9.558;2023-02-28T08:16:46;102590.84;;;8.63;54.04
5812;BME280;2932;52.400;9.558;2023-02-28T08:19:11;102593.28;;;8.70;53.72
5812;BME280;2932;52.400;9.558;2023-02-28T08:21:36;102589.63;;;8.80;53.96
5812;BME280;2932;52.400;9.558;2023-02-28T08:24:02;102599.44;;;9.01;53.85
5812;BME280;2932;52.400;9.558;2023-02-28T08:26:27;102598.56;;;9.06;53.09
5812;BME280;2932;52.400;9.558;2023-02-28T08:28:52;102598.91;;;9.33;52.83
5812;BME280;2932;52.400;9.558;2023-02-28T08:31:18;102605.38;;;9.52;52.72
5812;BME280;2932;52.400;9.558;2023-02-28T08:33:44;102601.72;;;9.86;51.57
5812;BME280;2932;52.400;9.558;2023-02-28T08:36:10;102598.06;;;9.90;52.15
5812;BME280;2932;52.400;9.558;2023-02-28T08:38:36;102597.00;;;10.10;51.10
5812;BME280;2932;52.400;9.558;2023-02-28T08:41:08;102598.13;;;10.09;51.64
5812;BME280;2932;52.400;9.558;2023-02-28T08:43:35;102590.16;;;10.02;50.65
5812;BME280;2932;52.400;9.558;2023-02-28T08:46:01;102590.75;;;10.47;50.24
5812;BME280;2932;52.400;9.558;2023-02-28T08:48:28;102591.22;;;10.54;50.13
5812;BME280;2932;52.400;9.558;2023-02-28T08:50:58;102595.41;;;10.52;50.24
5812;BME280;2932;52.400;9.558;2023-02-28T08:53:24;102595.06;;;10.77;49.69
5812;BME280;2932;52.400;9.558;2023-02-28T08:56:00;102591.91;;;10.84;49.58
5812;BME280;2932;52.400;9.558;2023-02-28T08:58:26;102583.53;;;10.70;49.71
5812;BME280;2932;52.400;9.558;2023-02-28T09:00:52;102596.47;;;10.75;49.09
5812;BME280;2932;52.400;9.558;2023-02-28T09:03:17;102598.19;;;10.71;49.16
5812;BME280;2932;52.400;9.558;2023-02-28T09:05:57;102600.50;;;10.82;49.20
5812;BME280;2932;52.400;9.558;2023-02-28T09:08:24;102606.78;;;10.88;49.39
5812;BME280;2932;52.400;9.558;2023-02-28T09:19:55;102600.72;;;11.69;47.48
5812;BME280;2932;52.400;9.558;2023-02-28T09:39:13;102602.25;;;11.29;44.86
5812;BME280;2932;52.400;9.558;2023-02-28T09:45:39;102586.75;;;11.75;44.80
5812;BME280;2932;52.400;9.558;2023-02-28T09:48:32;102593.63;;;11.96;44.38
5812;BME280;2932;52.400;9.558;2023-02-28T11:12:56;102580.94;;;13.39;37.62
5812;BME280;2932;52.400;9.558;2023-02-28T11:26:58;102561.09;;;14.42;35.84
5812;BME280;2932;52.400;9.558;2023-02-28T11:29:57;102550.47;;;14.53;35.54
5812;BME280;2932;52.400;9.558;2023-02-28T11:32:40;102557.84;;;14.83;37.39
5812;BME280;2932;52.400;9.558;2023-02-28T11:35:33;102550.38;;;16.32;41.94
5812;BME280;2932;52.400;9.558;2023-02-28T11:38:00;102552.78;;;16.63;39.79
5812;BME280;2932;52.400;9.558;2023-02-28T11:40:34;102546.91;;;16.06;35.10
5812;BME280;2932;52.400;9.558;2023-02-28T11:45:58;102536.25;;;17.45;33.61
5812;BME280;2932;52.400;9.558;2023-02-28T11:48:55;102541.47;;;17.80;32.68
5812;BME280;2932;52.400;9.558;2023-02-28T11:51:47;102537.56;;;18.45;32.76
5812;BME280;2932;52.400;9.558;2023-02-28T12:02:28;102528.88;;;20.25;31.05
5812;BME280;2932;52.400;9.558;2023-02-28T12:10:42;102513.47;;;24.04;28.89
5812;BME280;2932;52.400;9.558;2023-02-28T12:13:21;102519.31;;;25.05;27.93
5812;BME280;2932;52.400;9.558;2023-02-28T12:16:07;102517.53;;;24.07;27.84
5812;BME280;2932;52.400;9.558;2023-02-28T12:24:00;102520.94;;;25.13;27.25
5812;BME280;2932;52.400;9.558;2023-02-28T12:26:40;102512.09;;;26.07;26.21
5812;BME280;2932;52.400;9.558;2023-02-28T12:29:29;102513.50;;;24.80;26.98
5812;BME280;2932;52.400;9.558;2023-02-28T12:32:27;102514.81;;;24.97;26.75
5812;BME280;2932;52.400;9.558;2023-02-28T12:35:00;102506.97;;;27.04;25.84
5812;BME280;2932;52.400;9.558;2023-02-28T12:37:41;102491.88;;;28.14;25.05
5812;BME280;2932;52.400;9.558;2023-02-28T12:40:13;102493.00;;;28.27;25.21
5812;BME280;2932;52.400;9.558;2023-02-28T12:42:49;102500.47;;;27.07;26.18
5812;BME280;2932;52.400;9.558;2023-02-28T12:45:24;102492.25;;;25.43;27.40
5812;BME280;2932;52.400;9.558;2023-02-28T12:47:56;102496.22;;;23.28;28.49
5812;BME280;2932;52.400;9.558;2023-02-28T12:50:24;102507.56;;;21.59;29.99
5812;BME280;2932;52.400;9.558;2023-02-28T12:53:03;102497.22;;;23.06;29.08
5812;BME280;2932;52.400;9.558;2023-02-28T13:03:52;102469.63;;;29.31;24.45
5812;BME280;2932;52.400;9.558;2023-02-28T13:09:12;102464.28;;;30.06;24.33
5812;BME280;2932;52.400;9.558;2023-02-28T13:11:50;102458.13;;;30.87;23.75
5812;BME280;2932;52.400;9.558;2023-02-28T13:22:47;102452.88;;;30.06;23.83
5812;BME280;2932;52.400;9.558;2023-02-28T13:27:49;102457.06;;;30.22;23.91
5812;BME280;2932;52.400;9.558;2023-02-28T13:38:36;102442.09;;;31.91;22.51
5812;BME280;2932;52.400;9.558;2023-02-28T13:44:05;102435.06;;;31.14;22.88
5812;BME280;2932;52.400;9.558;2023-02-28T13:54:52;102423.19;;;31.48;22.83
5812;BME280;2932;52.400;9.558;2023-02-28T14:00:39;102417.53;;;31.28;22.71
5812;BME280;2932;52.400;9.558;2023-02-28T14:03:23;102415.97;;;31.89;22.61
5812;BME280;2932;52.400;9.558;2023-02-28T14:06:29;102412.13;;;31.95;22.59
5812;BME280;2932;52.400;9.558;2023-02-28T14:11:41;102413.44;;;32.20;22.44
5812;BME280;2932;52.400;9.558;2023-02-28T14:14:09;102417.53;;;31.28;22.52
5812;BME280;2932;52.400;9.558;2023-02-28T14:16:44;102420.84;;;31.27;22.52
5812;BME280;2932;52.400;9.558;2023-02-28T14:19:24;102411.09;;;31.73;22.21
5812;BME280;2932;52.400;9.558;2023-02-28T14:33:25;102417.13;;;32.20;22.07
5812;BME280;2932;52.400;9.558;2023-02-28T14:38:23;102415.09;;;32.04;22.05
5812;BME280;2932;52.400;9.558;2023-02-28T14:40:52;102421.19;;;31.77;22.37
5812;BME280;2932;52.400;9.558;2023-02-28T14:43:27;102413.44;;;32.20;22.31
5812;BME280;2932;52.400;9.558;2023-02-28T14:45:55;102408.03;;;32.51;21.91
5812;BME280;2932;52.400;9.558;2023-02-28T14:48:22;102408.28;;;32.56;22.18
5812;BME280;2932;52.400;9.558;2023-02-28T14:50:51;102403.63;;;33.00;21.64
5812;BME280;2932;52.400;9.558;2023-02-28T14:53:19;102401.16;;;32.06;22.30
5812;BME280;2932;52.400;9.558;2023-02-28T14:55:47;102412.84;;;31.83;22.10
5812;BME280;2932;52.400;9.558;2023-02-28T14:58:28;102407.97;;;31.51;22.21
5812;BME280;2932;52.400;9.558;2023-02-28T15:00:59;102408.94;;;31.61;22.58
5812;BME280;2932;52.400;9.558;2023-02-28T15:03:36;102408.06;;;31.47;22.30
5812;BME280;2932;52.400;9.558;2023-02-28T15:06:05;102405.38;;;31.57;22.80
5812;BME280;2932;52.400;9.558;2023-02-28T15:08:31;102409.16;;;31.37;22.69
5812;BME280;2932;52.400;9.558;2023-02-28T15:11:05;102411.09;;;32.02;22.09
5812;BME280;2932;52.400;9.558;2023-02-28T15:13:36;102415.63;;;31.05;22.67
5812;BME280;2932;52.400;9.558;2023-02-28T15:16:04;102404.13;;;31.41;22.23
5812;BME280;2932;52.400;9.558;2023-02-28T15:18:38;102406.16;;;31.08;22.40
5812;BME280;2932;52.400;9.558;2023-02-28T15:21:10;102407.25;;;30.42;23.03
5812;BME280;2932;52.400;9.558;2023-02-28T15:23:37;102408.59;;;30.38;22.96
5812;BME280;2932;52.400;9.558;2023-02-28T15:26:06;102397.72;;;30.69;22.09
5812;BME280;2932;52.400;9.558;2023-02-28T15:28:32;102401.13;;;30.80;22.29
5812;BME280;2932;52.400;9.558;2023-02-28T15:31:25;102410.44;;;29.85;22.61
5812;BME280;2932;52.400;9.558;2023-02-28T15:34:02;102407.16;;;29.63;23.02
5812;BME280;2932;52.400;9.558;2023-02-28T15:36:33;102411.25;;;29.85;22.76
5812;BME280;2932;52.400;9.558;2023-02-28T15:39:16;102410.56;;;29.31;23.46
5812;BME280;2932;52.400;9.558;2023-02-28T15:41:43;102404.38;;;29.83;23.05
5812;BME280;2932;52.400;9.558;2023-02-28T15:46:44;102409.25;;;30.26;23.13
5812;BME280;2932;52.400;9.558;2023-02-28T15:49:19;102410.66;;;30.37;22.72
5812;BME280;2932;52.400;9.558;2023-02-28T15:51:45;102401.97;;;30.01;23.06
5812;BME280;2932;52.400;9.558;2023-02-28T15:54:28;102402.13;;;29.71;23.03
5812;BME280;2932;52.400;9.558;2023-02-28T15:56:56;102401.91;;;29.62;22.98
5812;BME280;2932;52.400;9.558;2023-02-28T15:59:28;102409.44;;;29.25;23.70
5812;BME280;2932;52.400;9.558;2023-02-28T16:04:34;102404.13;;;28.43;23.74
5812;BME280;2932;52.400;9.558;2023-02-28T16:07:05;102410.66;;;28.06;24.05
5812;BME280;2932;52.400;9.558;2023-02-28T16:09:31;102416.09;;;27.93;24.52
5812;BME280;2932;52.400;9.558;2023-02-28T16:11:59;102402.72;;;27.90;24.66
5812;BME280;2932;52.400;9.558;2023-02-28T16:14:28;102415.81;;;27.32;24.62
5812;BME280;2932;52.400;9.558;2023-02-28T16:17:01;102406.47;;;26.73;25.13
5812;BME280;2932;52.400;9.558;2023-02-28T16:19:27;102418.38;;;26.39;25.36
5812;BME280;2932;52.400;9.558;2023-02-28T16:21:52;102418.84;;;26.31;25.15
5812;BME280;2932;52.400;9.558;2023-02-28T16:24:18;102416.53;;;25.69;25.94
5812;BME280;2932;52.400;9.558;2023-02-28T16:26:47;102417.34;;;25.48;26.21
5812;BME280;2932;52.400;9.558;2023-02-28T16:29:28;102414.09;;;25.32;26.12
5812;BME280;2932;52.400;9.558;2023-02-28T16:31:54;102418.84;;;24.67;26.54
5812;BME280;2932;52.400;9.558;2023-02-28T16:34:21;102421.81;;;24.12;26.89
5812;BME280;2932;52.400;9.558;2023-02-28T16:36:48;102425.63;;;23.76;27.48
5812;BME280;2932;52.400;9.558;2023-02-28T16:39:14;102423.50;;;22.81;27.94
5812;BME280;2932;52.400;9.558;2023-02-28T16:41:42;102437.16;;;21.62;28.99
5812;BME280;2932;52.400;9.558;2023-02-28T16:44:11;102440.81;;;20.37;30.13
5812;BME280;2932;52.400;9.558;2023-02-28T16:46:38;102440.84;;;19.23;31.21
5812;BME280;2932;52.400;9.558;2023-02-28T16:49:03;102443.28;;;18.25;32.24
5812;BME280;2932;52.400;9.558;2023-02-28T16:51:28;102441.69;;;17.51;33.04
5812;BME280;2932;52.400;9.558;2023-02-28T16:53:54;102446.69;;;16.88;33.79
5812;BME280;2932;52.400;9.558;2023-02-28T16:56:21;102444.47;;;16.60;34.13
5812;BME280;2932;52.400;9.558;2023-02-28T16:58:48;102444.16;;;16.20;34.63
5812;BME280;2932;52.400;9.558;2023-02-28T17:01:15;102452.91;;;15.89;34.69
5812;BME280;2932;52.400;9.558;2023-02-28T17:03:40;102449.41;;;15.63;35.29
5812;BME280;2932;52.400;9.558;2023-02-28T17:06:11;102454.44;;;15.31;35.84
5812;BME280;2932;52.400;9.558;2023-02-28T17:08:39;102445.38;;;14.96;36.15
5812;BME280;2932;52.400;9.558;2023-02-28T17:11:04;102451.13;;;14.91;36.33
5812;BME280;2932;52.400;9.558;2023-02-28T17:13:30;102460.84;;;14.77;36.68
5812;BME280;2932;52.400;9.558;2023-02-28T17:15:55;102457.72;;;14.61;36.91
5812;BME280;2932;52.400;9.558;2023-02-28T17:18:21;102457.22;;;14.33;37.40
5812;BME280;2932;52.400;9.558;2023-02-28T17:20:47;102454.09;;;14.26;37.56
5812;BME280;2932;52.400;9.558;2023-02-28T17:23:12;102468.31;;;14.07;37.83
5812;BME280;2932;52.400;9.558;2023-02-28T17:25:37;102467.97;;;13.91;38.01
5812;BME280;2932;52.400;9.558;2023-02-28T17:28:03;102466.63;;;13.89;38.11
5812;BME280;2932;52.400;9.558;2023-02-28T17:30:29;102470.03;;;13.77;38.17